Time;durP1;ratioP1;P1;durP2;ratioP2;P2;SDS_P1;SDS_P2;PMS_P1;PMS_P2;Temp;Humidity;BMP_temperature;BMP_pressure;BME280_temperature;BME280_humidity;BME280_pressure;Samples;Min_cycle;Max_cycle;Signal;HPM_P1;HPM_P2
2021/07/24 00:01:20;;;;;;;8.03;5.10;;;;;;;23.35;69.04;101016.75;5026691;27;104312;-53
2021/07/24 00:03:47;;;;;;;7.43;4.85;;;;;;;23.34;68.91;101020.69;5029074;27;103185;-52
2021/07/24 00:06:15;;;;;;;6.65;5.20;;;;;;;23.34;68.74;101015.94;5026818;27;102032;-53
2021/07/24 00:08:41;;;;;;;7.97;5.43;;;;;;;23.35;68.90;101025.09;5028916;27;102551;-52
2021/07/24 00:11:09;;;;;;;7.18;5.07;;;;;;;23.34;68.99;101020.69;5029082;27;104782;-53
2021/07/24 00:13:37;;;;;;;5.73;4.67;;;;;;;23.34;68.81;101020.69;5023234;27;102568;-53
2021/07/24 00:16:05;;;;;;;9.27;5.00;;;;;;;23.34;69.03;101020.69;5023268;27;103143;-53
2021/07/24 00:18:32;;;;;;;6.70;5.05;;;;;;;23.34;68.86;101015.16;5031113;27;102365;-54
2021/07/24 00:20:59;;;;;;;7.18;5.20;;;;;;;23.33;69.04;101019.88;5028851;28;103942;-53
2021/07/24 00:23:27;;;;;;;7.85;5.43;;;;;;;23.34;68.81;101024.28;5030599;27;102437;-52
2021/07/24 00:25:54;;;;;;;6.32;4.65;;;;;;;23.34;68.97;101020.69;5029229;27;102590;-52
2021/07/24 00:28:20;;;;;;;7.57;5.30;;;;;;;23.34;69.00;101015.16;5028195;27;102756;-52
2021/07/24 00:30:47;;;;;;;7.00;5.15;;;;;;;23.34;68.97;101020.69;5022278;27;103867;-52
2021/07/24 00:33:13;;;;;;;6.97;4.80;;;;;;;23.33;69.11;101019.88;5030515;27;102318;-53
2021/07/24 00:35:40;;;;;;;6.68;4.95;;;;;;;23.32;68.78;101017.44;5031670;27;103043;-53
2021/07/24 00:38:07;;;;;;;8.07;5.60;;;;;;;23.33;69.09;101024.63;5017361;27;102849;-53
2021/07/24 00:40:40;;;;;;;7.00;5.60;;;;;;;23.34;68.91;101017.91;5029128;27;103921;-53
2021/07/24 00:43:09;;;;;;;7.03;5.13;;;;;;;23.33;68.99;101019.88;5027697;27;102941;-52
2021/07/24 00:45:41;;;;;;;;;;;;;;;23.34;68.82;101023.47;5018003;27;102059;-53
2021/07/24 00:48:15;;;;;;;6.40;4.95;;;;;;;23.33;69.04;101022.63;5031850;27;102456;-53
2021/07/24 00:50:45;;;;;;;6.43;4.80;;;;;;;23.32;69.04;101018.25;5029482;27;103923;-52
2021/07/24 00:53:20;;;;;;;8.65;5.55;;;;;;;23.33;69.22;101025.41;5030437;27;102623;-52
2021/07/24 00:55:49;;;;;;;7.35;4.95;;;;;;;23.32;69.14;101018.25;5028752;28;101975;-52
2021/07/24 00:58:26;;;;;;;8.25;5.20;;;;;;;23.32;69.11;101025.78;5030001;28;103590;-52
2021/07/24 01:00:53;;;;;;;6.68;4.63;;;;;;;23.33;69.11;101019.06;5027475;27;103975;-52
2021/07/24 01:03:22;;;;;;;6.97;5.00;;;;;;;23.32;69.09;101026.59;5027112;27;102466;-52
2021/07/24 01:05:51;;;;;;;8.48;4.80;;;;;;;23.31;69.14;101022.19;5027934;27;102568;-52
2021/07/24 01:08:18;;;;;;;6.85;5.15;;;;;;;23.31;69.11;101019.41;5020780;28;102425;-52
2021/07/24 01:10:46;;;;;;;6.47;4.80;;;;;;;23.33;68.84;101024.63;5029313;27;103752;-52
2021/07/24 01:13:17;;;;;;;6.47;4.68;;;;;;;23.31;68.96;101016.66;5030774;27;102224;-53
2021/07/24 01:15:49;;;;;;;6.07;4.65;;;;;;;23.31;68.94;101016.66;5029084;27;103579;-52
2021/07/24 01:18:16;;;;;;;13.38;5.38;;;;;;;23.32;68.94;101011.91;5027905;27;102650;-53
2021/07/24 01:20:44;;;;;;;7.03;4.80;;;;;;;23.31;68.97;101005.53;5026987;27;103923;-53
2021/07/24 01:23:13;;;;;;;7.50;5.07;;;;;;;23.31;69.06;101011.09;5030281;27;102618;-53
2021/07/24 01:25:45;;;;;;;8.13;5.10;;;;;;;23.31;68.96;101013.06;5029910;27;102601;-53
2021/07/24 01:28:13;;;;;;;5.95;4.55;;;;;;;23.32;69.11;101007.16;5022844;28;102521;-53
2021/07/24 01:30:41;;;;;;;5.82;4.32;;;;;;;23.31;69.16;101015.84;5030797;27;104079;-52
2021/07/24 01:33:09;;;;;;;;;;;;;;;23.31;68.84;101004.72;5029515;27;102409;-53
2021/07/24 01:35:37;;;;;;;6.03;4.83;;;;;;;23.30;68.97;101006.72;5028408;27;103451;-52
2021/07/24 01:38:07;;;;;;;5.88;4.35;;;;;;;23.31;69.07;101004.72;5027909;27;103053;-52
2021/07/24 01:40:35;;;;;;;4.63;4.15;;;;;;;23.30;69.04;101015.03;5030425;27;104869;-52
2021/07/24 01:43:02;;;;;;;6.88;4.40;;;;;;;23.31;69.11;101018.63;5027575;27;102211;-54
2021/07/24 01:45:28;;;;;;;6.15;4.20;;;;;;;23.31;69.03;101015.84;5028902;27;102331;-52
2021/07/24 01:47:55;;;;;;;5.22;4.07;;;;;;;23.30;69.05;101023.38;5029232;27;102812;-52
2021/07/24 01:53:09;;;;;;;6.68;4.57;;;;;;;23.30;69.09;101019.75;5027594;27;103092;-53
2021/07/24 01:55:42;;;;;;;5.65;4.30;;;;;;;23.30;69.08;101023.38;5027740;27;102643;-53
2021/07/24 01:58:11;;;;;;;5.25;3.85;;;;;;;23.31;69.30;101022.19;5030861;27;102547;-52
2021/07/24 02:00:42;;;;;;;5.53;4.53;;;;;;;23.30;69.26;101014.19;5026637;27;104071;-53
2021/07/24 02:03:12;;;;;;;4.15;3.65;;;;;;;23.30;69.29;101011.41;5027703;27;102529;-52
2021/07/24 02:05:44;;;;;;;4.40;3.97;;;;;;;23.30;69.25;101015.03;5026092;27;102420;-53
2021/07/24 02:08:15;;;;;;;4.78;4.28;;;;;;;23.31;69.18;101015.84;5025790;28;102521;-52
2021/07/24 02:10:44;;;;;;;6.45;4.30;;;;;;;23.29;69.16;101015.38;5025031;28;105578;-52
2021/07/24 02:13:11;;;;;;;5.03;3.67;;;;;;;23.29;69.27;101016.16;5027632;27;102554;-52
2021/07/24 02:15:39;;;;;;;4.75;4.18;;;;;;;23.30;69.32;101019.75;5027402;27;101945;-52
2021/07/24 02:18:07;;;;;;;5.18;3.85;;;;;;;23.29;69.03;101018.94;5026175;27;102269;-52
2021/07/24 02:20:36;;;;;;;4.65;3.90;;;;;;;23.30;68.86;101008.66;5026834;27;103346;-53
2021/07/24 02:23:04;;;;;;;4.38;3.60;;;;;;;23.29;69.33;101012.59;5024544;27;102264;-53
2021/07/24 02:25:30;;;;;;;5.38;4.05;;;;;;;23.29;69.31;101018.94;5019755;27;103138;-53
2021/07/24 02:27:58;;;;;;;4.43;4.03;;;;;;;23.29;69.42;101026.47;5028144;27;102413;-53
2021/07/24 02:30:25;;;;;;;4.77;4.00;;;;;;;23.28;69.38;101014.56;5026802;27;103880;-53
2021/07/24 02:32:52;;;;;;;4.80;3.47;;;;;;;23.27;69.12;101016.53;5026194;27;102607;-53
2021/07/24 02:35:18;;;;;;;3.95;3.42;;;;;;;23.29;69.39;101018.16;5024392;27;102192;-52
2021/07/24 02:37:45;;;;;;;6.07;4.30;;;;;;;23.29;69.21;101018.16;5022431;27;102192;-52
2021/07/24 02:40:12;;;;;;;5.40;3.90;;;;;;;23.29;69.45;101023.69;5027321;27;103945;-53
2021/07/24 02:42:38;;;;;;;5.57;4.00;;;;;;;23.29;69.26;101013.41;5026974;27;102314;-53
2021/07/24 02:45:08;;;;;;;4.75;4.00;;;;;;;23.27;69.38;101021.28;5029440;27;102588;-53
2021/07/24 02:47:34;;;;;;;5.95;3.70;;;;;;;23.27;69.38;101016.53;5029857;27;102304;-53
2021/07/24 02:50:02;;;;;;;4.85;3.80;;;;;;;23.27;69.26;101022.09;5027952;27;103867;-52
2021/07/24 02:52:29;;;;;;;4.38;3.67;;;;;;;23.27;69.38;101027.66;5038066;27;102010;-53
2021/07/24 02:54:55;;;;;;;5.35;3.63;;;;;;;23.27;69.39;101027.66;5041505;27;102206;-52
2021/07/24 02:57:22;;;;;;;3.90;3.47;;;;;;;23.26;69.15;101020.47;5042676;27;103504;-52
2021/07/24 02:59:49;;;;;;;4.97;3.33;;;;;;;23.27;69.19;101022.09;5036423;27;104037;-52
2021/07/24 03:02:17;;;;;;;3.55;3.25;;;;;;;23.26;69.32;101026.03;5022437;27;102586;-53
2021/07/24 03:04:44;;;;;;;;;;;;;;;23.27;69.37;101022.09;5026500;27;102407;-53
2021/07/24 03:07:11;;;;;;;5.22;3.88;;;;;;;23.27;69.27;101026.84;5029012;27;103316;-52
2021/07/24 03:09:38;;;;;;;7.68;3.90;;;;;;;23.25;69.27;101024.41;5032828;27;103948;-53
2021/07/24 03:12:05;;;;;;;4.55;3.45;;;;;;;23.27;69.45;101026.84;5027000;27;102338;-52
2021/07/24 03:14:31;;;;;;;4.65;3.47;;;;;;;23.27;69.41;101022.09;5027770;27;102621;-52
2021/07/24 03:16:58;;;;;;;5.00;3.70;;;;;;;23.27;69.63;101026.84;5023629;27;102852;-52
2021/07/24 03:19:27;;;;;;;5.10;3.60;;;;;;;23.27;69.37;101021.28;5022485;27;103849;-53
2021/07/24 03:21:53;;;;;;;5.63;3.80;;;;;;;23.26;69.46;101026.03;5026439;27;105298;-53
2021/07/24 03:24:20;;;;;;;5.30;4.03;;;;;;;23.27;69.45;101026.84;5027368;27;102034;-53
2021/07/24 03:26:46;;;;;;;4.53;3.80;;;;;;;23.27;69.79;101027.66;5025541;27;102731;-52
2021/07/24 03:29:13;;;;;;;4.45;3.83;;;;;;;23.26;69.45;101031.59;5027885;27;103698;-53
2021/07/24 03:31:40;;;;;;;4.72;3.55;;;;;;;23.27;69.58;101029.63;5025144;27;102446;-54
2021/07/24 03:34:06;;;;;;;5.18;3.35;;;;;;;23.27;69.49;101024.06;5026261;27;104077;-54
2021/07/24 03:36:34;;;;;;;3.90;3.25;;;;;;;23.26;69.46;101025.19;5027800;27;102330;-53
2021/07/24 03:39:00;;;;;;;4.88;3.30;;;;;;;23.27;69.58;101029.63;5026783;27;103967;-54
2021/07/24 03:41:27;;;;;;;4.75;3.25;;;;;;;23.26;69.33;101031.59;5025757;27;102276;-54
2021/07/24 03:43:54;;;;;;;5.47;3.50;;;;;;;23.26;69.33;101023.25;5022554;27;105137;-54
2021/07/24 03:46:21;;;;;;;5.55;3.63;;;;;;;23.27;69.56;101027.66;5025819;28;102378;-54
2021/07/24 03:48:48;;;;;;;4.75;3.33;;;;;;;23.27;69.53;101030.41;5025618;27;103403;-53
2021/07/24 03:51:15;;;;;;;4.60;3.53;;;;;;;23.28;69.74;101034.00;5025454;27;102268;-54
2021/07/24 03:53:43;;;;;;;4.38;3.08;;;;;;;23.26;69.86;101026.03;5026602;27;102327;-54
2021/07/24 03:56:15;;;;;;;4.45;3.35;;;;;;;23.26;69.75;101031.59;5025356;27;102272;-54
2021/07/24 03:58:42;;;;;;;11.18;3.83;;;;;;;23.27;69.64;101033.19;5026096;27;103780;-53
2021/07/24 04:01:09;;;;;;;4.00;3.60;;;;;;;23.26;69.67;101026.03;5025151;27;102776;-53
2021/07/24 04:03:36;;;;;;;5.68;3.53;;;;;;;23.27;69.70;101027.66;5026466;27;102151;-54
2021/07/24 04:06:03;;;;;;;3.30;3.00;;;;;;;23.27;69.70;101026.84;5034720;27;102244;-53
2021/07/24 04:08:31;;;;;;;4.40;3.25;;;;;;;23.26;69.42;101020.47;5025827;28;103853;-53
2021/07/24 04:11:00;;;;;;;4.35;3.30;;;;;;;23.26;69.46;101025.19;5026199;27;102499;-53
2021/07/24 04:13:26;;;;;;;3.88;3.00;;;;;;;23.25;69.57;101024.41;5020886;27;102386;-54
2021/07/24 04:15:53;;;;;;;3.80;3.15;;;;;;;23.26;69.80;101026.03;5028262;27;103034;-53
2021/07/24 04:18:24;;;;;;;3.95;3.15;;;;;;;23.25;69.76;101027.16;5028803;27;104095;-54
2021/07/24 04:20:51;;;;;;;3.95;3.50;;;;;;;23.26;69.77;101030.75;5030876;27;102437;-53
2021/07/24 04:23:18;;;;;;;4.40;3.20;;;;;;;23.27;69.74;101026.84;5029661;27;102478;-54
2021/07/24 04:25:44;;;;;;;5.10;3.30;;;;;;;23.26;69.88;101031.59;5029141;27;102708;-54
2021/07/24 04:28:12;;;;;;;4.93;3.13;;;;;;;23.27;69.93;101035.16;5028072;27;104098;-54
2021/07/24 04:30:38;;;;;;;3.95;3.13;;;;;;;23.27;69.75;101033.19;5029212;27;102394;-54
2021/07/24 04:33:06;;;;;;;3.88;3.08;;;;;;;23.27;69.85;101033.19;5028223;27;102327;-54
2021/07/24 04:35:32;;;;;;;3.50;3.20;;;;;;;23.28;70.14;101036.78;5029846;27;103658;-54
2021/07/24 04:37:59;;;;;;;4.15;3.13;;;;;;;23.29;70.02;101041.16;5028557;28;103470;-53
2021/07/24 04:40:26;;;;;;;3.92;3.20;;;;;;;23.29;69.96;101040.38;5030473;27;102237;-54
2021/07/24 04:42:52;;;;;;;3.47;2.97;;;;;;;23.27;70.45;101030.41;5029607;27;102745;-54
2021/07/24 04:45:20;;;;;;;4.85;3.28;;;;;;;23.29;70.05;101029.25;5028319;27;102134;-53
2021/07/24 04:47:47;;;;;;;3.13;2.83;;;;;;;23.30;70.23;101028.91;5029818;27;103508;-53
2021/07/24 04:50:14;;;;;;;4.63;3.28;;;;;;;23.30;70.04;101036.41;5021216;27;102831;-54
2021/07/24 04:52:40;;;;;;;4.38;3.45;;;;;;;23.29;70.18;101029.25;5028320;27;102281;-54
2021/07/24 04:55:08;;;;;;;3.58;3.13;;;;;;;23.30;70.26;101030.88;5030244;27;102581;-54
2021/07/24 04:57:34;;;;;;;3.35;2.85;;;;;;;23.30;70.45;101030.88;5025368;27;103657;-54
2021/07/24 05:00:02;;;;;;;4.45;2.92;;;;;;;23.30;70.43;101031.69;5025481;27;103493;-53
2021/07/24 05:02:31;;;;;;;3.78;3.13;;;;;;;23.31;70.43;101035.28;5026810;27;102506;-54
2021/07/24 05:04:57;;;;;;;3.78;3.22;;;;;;;23.30;70.15;101030.88;5029526;27;102360;-54
2021/07/24 05:07:24;;;;;;;3.63;3.15;;;;;;;23.31;70.55;101036.09;5028856;27;104149;-54
2021/07/24 05:09:52;;;;;;;;;;;;;;;23.32;70.45;101028.56;5031116;27;102491;-53
2021/07/24 05:12:19;;;;;;;4.18;3.15;;;;;;;23.31;70.48;101036.09;5028045;27;102625;-53
2021/07/24 05:14:45;;;;;;;4.28;3.35;;;;;;;23.32;70.36;101042.44;5031278;27;102720;-54
2021/07/24 05:17:13;;;;;;;4.25;3.10;;;;;;;23.33;70.44;101042.06;5027447;27;103748;-54
2021/07/24 05:19:43;;;;;;;3.53;2.72;;;;;;;23.33;70.56;101041.28;5029891;27;102924;-53
2021/07/24 05:22:12;;;;;;;4.95;3.28;;;;;;;23.34;70.19;101037.38;5023849;27;102409;-53
2021/07/24 05:24:44;;;;;;;3.35;3.05;;;;;;;23.34;70.16;101049.28;5029820;27;102364;-53
2021/07/24 05:27:11;;;;;;;3.08;2.80;;;;;;;23.34;70.39;101046.50;5026809;27;103712;-53
2021/07/24 05:29:38;;;;;;;3.58;2.90;;;;;;;23.36;70.43;101046.13;5029680;27;102094;-54
2021/07/24 05:32:05;;;;;;;3.00;2.80;;;;;;;23.36;70.32;101044.16;5024288;27;102492;-54
2021/07/24 05:34:32;;;;;;;3.20;2.65;;;;;;;23.37;70.35;101050.53;5017523;27;102172;-53
2021/07/24 05:37:00;;;;;;;3.35;2.67;;;;;;;23.38;70.39;101054.94;5022152;27;104162;-53
2021/07/24 05:39:26;;;;;;;2.93;2.70;;;;;;;23.39;70.41;101057.34;5029330;27;102136;-54
2021/07/24 05:41:53;;;;;;;4.88;2.50;;;;;;;23.39;70.44;101054.56;5028412;27;102139;-54
2021/07/24 05:44:20;;;;;;;3.53;2.70;;;;;;;23.41;70.38;101059.78;5028168;27;102452;-54
2021/07/24 05:46:47;;;;;;;3.55;2.70;;;;;;;23.41;70.20;101046.72;5028344;27;103536;-53
2021/07/24 05:49:14;;;;;;;2.85;2.55;;;;;;;23.42;70.31;101050.28;5026304;27;103061;-53
2021/07/24 05:51:40;;;;;;;2.92;2.72;;;;;;;23.43;70.38;101051.91;5026375;27;102151;-54
2021/07/24 05:54:09;;;;;;;2.70;2.50;;;;;;;23.44;70.39;101050.75;5027472;27;102411;-53
2021/07/24 05:56:35;;;;;;;4.60;2.88;;;;;;;23.45;70.32;101055.16;5025895;27;103861;-54
2021/07/24 05:59:03;;;;;;;3.38;3.03;;;;;;;23.45;70.23;101055.16;5026309;27;101996;-53
2021/07/24 06:01:30;;;;;;;3.55;3.20;;;;;;;23.47;70.28;101055.59;5024260;28;102711;-53
2021/07/24 06:03:58;;;;;;;4.43;2.75;;;;;;;23.48;70.24;101054.47;5028777;27;102687;-53
2021/07/24 06:06:25;;;;;;;3.10;2.80;;;;;;;23.49;70.11;101050.50;5016302;27;103833;-54
2021/07/24 06:08:51;;;;;;;3.22;2.92;;;;;;;23.50;70.32;101049.34;5028526;27;102494;-54
2021/07/24 06:11:20;;;;;;;3.20;2.90;;;;;;;23.49;70.07;101054.09;5013593;27;102839;-53
2021/07/24 06:13:46;;;;;;;3.13;2.80;;;;;;;23.52;70.06;101058.16;5018186;27;103920;-53
2021/07/24 06:16:13;;;;;;;3.83;2.65;;;;;;;23.52;70.09;101055.38;5014988;27;104178;-54
2021/07/24 06:18:39;;;;;;;3.38;3.00;;;;;;;23.54;70.06;101058.59;5012651;27;102411;-54
2021/07/24 06:21:06;;;;;;;3.08;2.78;;;;;;;23.55;70.13;101065.78;5009270;27;102596;-54
2021/07/24 06:23:34;;;;;;;4.40;2.85;;;;;;;23.56;69.92;101059.06;5013777;27;103426;-54
2021/07/24 06:26:02;;;;;;;3.43;2.97;;;;;;;23.57;70.06;101066.22;5028366;27;103986;-54
2021/07/24 06:28:31;;;;;;;3.30;2.85;;;;;;;23.58;70.14;101064.25;5028546;27;102463;-53
2021/07/24 06:31:00;;;;;;;3.87;3.20;;;;;;;23.59;70.01;101063.13;5023526;28;103487;-54
2021/07/24 06:33:27;;;;;;;3.08;2.70;;;;;;;23.59;70.03;101066.69;5027700;27;102213;-53
2021/07/24 06:35:54;;;;;;;3.53;2.83;;;;;;;23.60;69.89;101073.88;5024278;27;103925;-55
2021/07/24 06:38:21;;;;;;;3.15;2.85;;;;;;;23.61;69.93;101069.09;5023967;27;102710;-54
2021/07/24 06:40:47;;;;;;;3.58;2.67;;;;;;;23.61;69.86;101069.91;5028728;27;102204;-54
2021/07/24 06:43:14;;;;;;;2.95;2.60;;;;;;;23.62;69.82;101070.72;5028360;28;102128;-53
2021/07/24 06:45:42;;;;;;;3.70;2.88;;;;;;;23.63;70.16;101077.91;5026711;27;104206;-54
2021/07/24 06:48:09;;;;;;;3.47;2.70;;;;;;;23.63;69.73;101073.16;5026130;27;102517;-54
2021/07/24 06:50:36;;;;;;;3.70;3.10;;;;;;;23.63;69.89;101077.91;5023987;27;102563;-54
2021/07/24 06:53:03;;;;;;;3.58;2.88;;;;;;;23.64;69.85;101077.56;5020103;27;102657;-54
2021/07/24 06:55:30;;;;;;;2.95;2.65;;;;;;;23.65;69.81;101075.56;5024167;27;103860;-54
2021/07/24 06:58:01;;;;;;;3.38;2.58;;;;;;;23.66;69.79;101078.03;5028838;27;102279;-54
2021/07/24 07:00:28;;;;;;;3.08;2.40;;;;;;;23.67;69.74;101073.31;5024269;27;104155;-54
2021/07/24 07:02:57;;;;;;;2.97;2.50;;;;;;;23.67;69.82;101076.88;5027312;27;102294;-54
2021/07/24 07:05:25;;;;;;;2.88;2.67;;;;;;;23.68;69.77;101081.28;5025886;27;103936;-53
2021/07/24 07:07:53;;;;;;;;;;;;;;;23.69;69.78;101080.13;5027686;27;102620;-54
2021/07/24 07:10:21;;;;;;;2.72;2.42;;;;;;;23.70;69.67;101080.94;5028399;27;102091;-54
2021/07/24 07:12:48;;;;;;;3.58;2.75;;;;;;;23.71;69.59;101082.53;5029308;27;102177;-54
2021/07/24 07:15:14;;;;;;;3.40;2.80;;;;;;;23.72;69.69;101086.94;5027204;27;104031;-53
2021/07/24 07:17:41;;;;;;;2.72;2.53;;;;;;;23.74;69.55;101085.44;5028717;27;102249;-54
2021/07/24 07:20:10;;;;;;;2.80;2.50;;;;;;;23.74;69.56;101088.22;5022121;27;102053;-54
2021/07/24 07:22:37;;;;;;;2.47;2.28;;;;;;;23.77;69.66;101083.13;5025498;27;102535;-53
2021/07/24 07:25:04;;;;;;;2.60;2.40;;;;;;;23.78;69.41;101088.31;5024961;27;104358;-54
2021/07/24 07:27:31;;;;;;;2.60;2.40;;;;;;;23.76;69.51;101085.06;5028548;27;102377;-54
2021/07/24 07:29:58;;;;;;;3.50;2.85;;;;;;;23.78;69.59;101079.97;5029357;27;102466;-53
2021/07/24 07:32:25;;;;;;;2.78;2.47;;;;;;;23.78;69.40;101079.97;5028732;27;102720;-54
2021/07/24 07:34:53;;;;;;;2.53;2.22;;;;;;;23.79;69.38;101080.78;5026820;27;103866;-54
2021/07/24 07:37:22;;;;;;;2.60;2.40;;;;;;;23.80;69.57;101076.84;5029776;27;102007;-54
2021/07/24 07:39:48;;;;;;;2.85;2.60;;;;;;;23.80;69.53;101088.78;5027042;28;102436;-54
2021/07/24 07:42:15;;;;;;;3.53;2.53;;;;;;;23.79;69.19;101076.03;5031197;27;102222;-54
2021/07/24 07:44:41;;;;;;;2.30;2.10;;;;;;;23.79;69.44;101072.44;5027786;27;103851;-55
2021/07/24 07:47:09;;;;;;;2.30;2.10;;;;;;;23.80;69.53;101087.94;5030220;27;103060;-55
2021/07/24 07:49:36;;;;;;;2.90;2.67;;;;;;;23.80;69.58;101079.63;5040432;27;102334;-54
2021/07/24 07:52:03;;;;;;;2.50;2.30;;;;;;;23.80;69.57;101080.44;5043152;27;102745;-54
2021/07/24 07:54:33;;;;;;;2.70;2.50;;;;;;;23.81;69.60;101078.47;5042882;27;104152;-54
2021/07/24 07:56:59;;;;;;;3.58;2.30;;;;;;;23.80;69.42;101082.41;5043090;27;102420;-54
2021/07/24 07:59:26;;;;;;;2.25;2.05;;;;;;;23.79;69.56;101081.59;5035953;27;102032;-53
2021/07/24 08:01:53;;;;;;;2.78;2.22;;;;;;;23.80;69.50;101079.63;5024128;27;102672;-53
2021/07/24 08:04:20;;;;;;;2.75;2.40;;;;;;;23.80;69.36;101082.41;5030909;27;104374;-54
2021/07/24 08:06:48;;;;;;;2.70;2.30;;;;;;;23.80;69.45;101085.16;5027936;27;102681;-54
2021/07/24 08:09:15;;;;;;;2.42;2.22;;;;;;;23.81;69.73;101084.84;5031630;27;102535;-54
2021/07/24 08:11:43;;;;;;;2.22;2.03;;;;;;;23.81;69.41;101089.59;5033224;27;102118;-54
2021/07/24 08:14:10;;;;;;;2.85;2.65;;;;;;;23.82;69.62;101091.19;5025272;27;102988;-55
2021/07/24 08:16:36;;;;;;;2.40;2.20;;;;;;;23.82;69.50;101080.09;5032803;27;102343;-54
2021/07/24 08:19:03;;;;;;;2.53;2.33;;;;;;;23.83;69.44;101087.25;5029102;27;102662;-54
2021/07/24 08:21:29;;;;;;;2.38;2.03;;;;;;;23.81;69.54;101084.03;5029655;27;102090;-54
2021/07/24 08:23:56;;;;;;;2.28;2.03;;;;;;;23.82;69.31;101093.97;5028549;27;103894;-54
2021/07/24 08:26:23;;;;;;;2.83;2.10;;;;;;;23.81;69.50;101092.38;5020269;27;102400;-53
2021/07/24 08:28:51;;;;;;;4.22;2.30;;;;;;;23.81;69.37;101093.19;5030973;28;102002;-54
2021/07/24 08:31:17;;;;;;;2.87;2.10;;;;;;;23.81;69.40;101095.16;5028685;27;102744;-54
2021/07/24 08:33:44;;;;;;;2.30;2.10;;;;;;;23.81;69.47;101089.59;5030028;27;104197;-54
2021/07/24 08:36:11;;;;;;;2.30;2.10;;;;;;;23.81;69.50;101084.03;5029578;27;102217;-54
2021/07/24 08:38:37;;;;;;;2.20;2.00;;;;;;;23.81;69.35;101095.16;5030613;27;102325;-54
2021/07/24 08:41:05;;;;;;;2.20;1.95;;;;;;;23.79;69.66;101087.16;5029326;27;102993;-54
2021/07/24 08:43:32;;;;;;;2.28;1.92;;;;;;;23.81;69.38;101089.59;5030009;27;103925;-54
2021/07/24 08:46:00;;;;;;;2.20;2.00;;;;;;;23.80;69.31;101088.78;5027641;27;102450;-54
2021/07/24 08:48:27;;;;;;;2.45;2.20;;;;;;;23.81;69.57;101084.03;5030387;27;102049;-54
2021/07/24 08:50:55;;;;;;;2.13;1.92;;;;;;;23.81;69.31;101092.38;5032091;27;102247;-54
2021/07/24 08:53:26;;;;;;;2.25;2.03;;;;;;;23.81;69.13;101084.84;5028653;27;102975;-54
2021/07/24 08:56:06;;;;;;;2.88;1.65;;;;;;;23.81;69.37;101089.59;5029881;27;102825;-53
2021/07/24 08:58:34;;;;;;;2.55;2.05;;;;;;;23.80;69.38;101088.78;5027816;28;102465;-54
2021/07/24 09:01:02;;;;;;;;;;;;;;;23.81;69.40;101092.38;5028449;27;102269;-53
2021/07/24 09:03:33;;;;;;;2.47;2.00;;;;;;;23.81;69.16;101089.59;5026311;27;103800;-54
2021/07/24 09:06:00;;;;;;;3.25;2.10;;;;;;;23.80;69.23;101080.44;5028321;27;103870;-53
2021/07/24 09:08:27;;;;;;;2.22;2.03;;;;;;;23.81;69.34;101089.59;5030986;27;102478;-54
2021/07/24 09:10:54;;;;;;;2.75;2.00;;;;;;;23.80;69.38;101087.94;5031881;27;103234;-53
2021/07/24 09:13:22;;;;;;;2.30;2.03;;;;;;;23.80;69.28;101086.00;5030398;27;103706;-54
2021/07/24 09:15:48;;;;;;;2.05;1.85;;;;;;;23.80;69.42;101085.16;5030318;27;102120;-54
2021/07/24 09:18:17;;;;;;;2.80;1.92;;;;;;;23.81;69.09;101089.59;5025339;27;102413;-54
2021/07/24 09:20:46;;;;;;;1.92;1.83;;;;;;;23.80;69.25;101087.94;5029032;28;102251;-54
2021/07/24 09:23:26;;;;;;;2.25;2.10;;;;;;;23.81;69.28;101092.38;5025769;27;103873;-54
2021/07/24 09:25:53;;;;;;;2.20;2.00;;;;;;;23.80;69.66;101087.94;5028632;27;103885;-52
2021/07/24 09:28:19;;;;;;;6.57;2.30;;;;;;;23.85;67.08;101094.09;5028883;27;102501;-52
2021/07/24 09:30:46;;;;;;;4.10;2.03;;;;;;;23.85;65.11;101096.06;5030083;27;102461;-53
2021/07/24 09:33:14;;;;;;;6.65;2.03;;;;;;;23.82;63.04;101092.00;5023196;27;103807;-53
2021/07/24 09:35:43;;;;;;;4.00;2.20;;;;;;;23.79;62.25;101094.69;5025897;27;102584;-53
2021/07/24 09:38:29;;;;;;;7.18;2.45;;;;;;;23.76;61.72;101087.03;5026826;27;102247;-54
2021/07/24 09:40:57;;;;;;;4.72;2.05;;;;;;;23.73;61.02;101089.38;5023164;27;102346;-53
2021/07/24 09:43:35;;;;;;;6.07;2.00;;;;;;;23.74;61.26;101079.88;5027955;27;104370;-53
2021/07/24 09:46:10;;;;;;;4.65;2.10;;;;;;;23.72;61.93;101082.19;5025621;27;102332;-53
2021/07/24 09:48:38;;;;;;;3.28;1.90;;;;;;;23.72;62.25;101076.63;5025926;27;102617;-53
2021/07/24 09:51:06;;;;;;;5.03;2.25;;;;;;;23.71;61.94;101080.56;5027021;27;103444;-53
2021/07/24 09:53:39;;;;;;;2.15;1.95;;;;;;;23.73;61.19;101083.03;5026319;27;104051;-53
2021/07/24 09:56:07;;;;;;;2.30;2.00;;;;;;;23.72;60.76;101073.84;5022386;27;102469;-53
2021/07/24 09:58:33;;;;;;;10.35;2.95;;;;;;;23.74;60.55;101074.31;5018556;27;102488;-53
2021/07/24 10:01:04;;;;;;;8.05;2.15;;;;;;;23.76;60.46;101065.63;5028538;27;102812;-53
2021/07/24 10:03:32;;;;;;;5.07;2.88;;;;;;;23.76;60.50;101067.59;5029946;27;103973;-53
2021/07/24 10:06:02;;;;;;;4.35;2.20;;;;;;;23.76;59.35;101070.38;5017498;27;102757;-52
2021/07/24 10:08:31;;;;;;;3.20;2.25;;;;;;;23.74;58.65;101068.75;5030471;27;102419;-53
2021/07/24 10:10:58;;;;;;;4.38;2.15;;;;;;;23.73;57.76;101066.34;5029897;27;102276;-53
2021/07/24 10:13:26;;;;;;;6.07;2.20;;;;;;;23.74;57.65;101068.75;5030808;27;103741;-53
2021/07/24 10:15:53;;;;;;;2.08;1.75;;;;;;;23.72;57.77;101065.50;5029533;27;102218;-52
2021/07/24 10:18:21;;;;;;;3.33;2.05;;;;;;;23.73;58.22;101063.56;5016988;27;102192;-53
2021/07/24 10:20:50;;;;;;;3.97;2.10;;;;;;;23.74;57.23;101062.41;5029009;27;102461;-53
2021/07/24 10:23:20;;;;;;;9.27;2.35;;;;;;;23.75;58.66;101069.56;5030420;27;104082;-52
2021/07/24 10:25:54;;;;;;;11.18;2.67;;;;;;;23.74;60.51;101062.41;5028995;27;102104;-51
2021/07/24 10:28:26;;;;;;;8.50;2.50;;;;;;;23.76;61.77;101068.41;5026957;27;102234;-52
2021/07/24 10:30:54;;;;;;;4.07;2.40;;;;;;;23.78;63.73;101065.28;5028259;27;102199;-52
2021/07/24 10:33:22;;;;;;;5.30;2.60;;;;;;;23.77;63.98;101067.25;5029283;27;103948;-52
2021/07/24 10:35:49;;;;;;;;;;;;;;;23.78;63.84;101062.50;5026820;27;102637;-51
2021/07/24 10:38:29;;;;;;;6.65;2.97;;;;;;;23.79;63.02;101062.13;5026092;27;102479;-52
2021/07/24 10:41:41;;;;;;;5.72;2.13;;;;;;;23.82;60.12;101063.41;5030176;27;102646;-52
2021/07/24 10:44:10;;;;;;;3.67;2.08;;;;;;;23.78;61.40;101057.75;5015375;27;102708;-51
2021/07/24 10:47:14;;;;;;;5.85;2.42;;;;;;;23.79;63.22;101059.34;5027492;27;102409;-51
2021/07/24 10:50:03;;;;;;;2.95;2.60;;;;;;;23.81;63.64;101059.03;5024931;27;102539;-51
2021/07/24 10:53:08;;;;;;;4.60;2.45;;;;;;;23.81;64.40;101061.81;5027106;27;102589;-52
2021/07/24 10:55:46;;;;;;;3.47;2.50;;;;;;;23.81;64.46;101059.03;5028946;27;103916;-52
2021/07/24 10:58:15;;;;;;;5.35;2.63;;;;;;;23.81;64.98;101050.69;5029877;27;103398;-52
2021/07/24 11:00:53;;;;;;;3.58;2.70;;;;;;;23.81;65.26;101050.69;5026514;27;102110;-52
2021/07/24 11:03:31;;;;;;;4.82;2.58;;;;;;;23.80;65.27;101065.72;5026749;27;102846;-52
2021/07/24 11:05:58;;;;;;;3.35;2.70;;;;;;;23.79;65.17;101062.13;5029491;27;103970;-52
2021/07/24 11:09:01;;;;;;;4.68;2.95;;;;;;;23.81;65.71;101067.34;5026473;27;102806;-52
2021/07/24 11:11:42;;;;;;;3.90;2.78;;;;;;;23.78;65.63;101065.28;4992735;27;102935;-52
2021/07/24 11:14:54;;;;;;;3.65;2.70;;;;;;;23.78;65.66;101059.72;5025914;28;102263;-52
2021/07/24 11:17:21;;;;;;;4.75;3.28;;;;;;;23.78;66.20;101068.06;5024721;27;106027;-52
2021/07/24 11:20:30;;;;;;;3.70;2.80;;;;;;;23.78;65.82;101054.16;5020032;27;102539;-52
2021/07/24 11:23:05;;;;;;;4.03;2.80;;;;;;;23.77;65.81;101049.78;5027263;27;102698;-52
2021/07/24 11:25:36;;;;;;;6.13;2.95;;;;;;;23.77;65.97;101052.56;5032338;27;102382;-52
2021/07/24 11:28:04;;;;;;;4.18;2.55;;;;;;;23.76;66.12;101051.72;5030331;27;102924;-52
2021/07/24 11:30:33;;;;;;;4.22;2.42;;;;;;;23.77;66.19;101055.34;5031871;27;102890;-52